createdAt,value
2019-05-05T00:02:08.469Z,5.20
2019-05-05T00:04:56.627Z,5.10
2019-05-05T00:07:40.357Z,5.10
2019-05-05T00:10:25.302Z,5.10
2019-05-05T00:13:21.637Z,5.10
2019-05-05T00:16:22.161Z,5.00
2019-05-05T00:19:04.861Z,5.00
2019-05-05T00:21:41.609Z,5.00
2019-05-05T00:26:52.409Z,5.10
2019-05-05T00:29:28.556Z,5.00
2019-05-05T00:32:11.411Z,4.90
2019-05-05T00:34:47.987Z,4.90
2019-05-05T00:37:30.513Z,4.90
2019-05-05T00:40:06.535Z,5.00
2019-05-05T00:42:49.525Z,5.10
2019-05-05T00:45:26.359Z,5.20
2019-05-05T00:48:36.064Z,5.20
2019-05-05T00:51:12.116Z,5.10
2019-05-05T00:53:55.587Z,5.20
2019-05-05T00:56:34.241Z,5.20
2019-05-05T00:59:19.786Z,5.10
2019-05-05T01:02:18.286Z,5.10
2019-05-05T01:05:20.068Z,5.20
2019-05-05T01:07:46.775Z,5.20
2019-05-05T01:15:28.048Z,5.20
2019-05-05T01:18:04.226Z,5.10
2019-05-05T01:20:46.797Z,5.00
2019-05-05T01:23:24.389Z,5.00
2019-05-05T01:26:07.389Z,4.90
2019-05-05T01:28:44.677Z,4.70
2019-05-05T01:31:28.576Z,4.70
2019-05-05T01:34:24.379Z,4.80
2019-05-05T01:37:11.849Z,4.90
2019-05-05T01:40:00.889Z,5.00
2019-05-05T01:45:01.457Z,4.90
2019-05-05T01:47:37.074Z,4.90
2019-05-05T01:50:21.579Z,4.70
2019-05-05T01:52:58.032Z,4.90
2019-05-05T01:55:41.062Z,4.90
2019-05-05T01:58:17.307Z,4.80
2019-05-05T02:03:28.039Z,4.70
2019-05-05T02:08:38.889Z,4.80
2019-05-05T02:11:15.647Z,4.80
2019-05-05T02:13:59.307Z,4.80
2019-05-05T02:16:35.682Z,4.80
2019-05-05T02:24:05.235Z,4.80
2019-05-05T02:26:41.118Z,4.90
2019-05-05T02:29:30.208Z,4.80
2019-05-05T02:32:28.513Z,4.90
2019-05-05T02:35:15.897Z,4.80
2019-05-05T02:37:50.553Z,4.80
2019-05-05T02:42:59.852Z,4.70
2019-05-05T02:46:14.520Z,4.60
2019-05-05T02:48:54.876Z,4.50
2019-05-05T02:51:39.337Z,4.50
2019-05-05T02:54:29.911Z,4.50
2019-05-05T02:57:13.465Z,4.50
2019-05-05T02:59:55.675Z,4.50
2019-05-05T03:05:08.038Z,4.50
2019-05-05T03:07:58.581Z,4.40
2019-05-05T03:10:48.129Z,4.30
2019-05-05T03:13:31.058Z,4.40
2019-05-05T03:16:20.998Z,4.30
2019-05-05T03:21:30.820Z,4.20
2019-05-05T03:24:14.432Z,4.20
2019-05-05T03:26:51.076Z,4.10
2019-05-05T03:32:05.482Z,4.00
2019-05-05T03:34:56.046Z,3.90
2019-05-05T03:37:45.864Z,3.80
2019-05-05T03:40:34.295Z,3.80
2019-05-05T03:43:19.286Z,4.00
2019-05-05T03:45:58.316Z,3.90
2019-05-05T03:48:34.697Z,3.80
2019-05-05T03:56:14.017Z,3.80
2019-05-05T03:58:58.382Z,3.90
2019-05-05T04:01:43.868Z,4.00
2019-05-05T04:04:24.437Z,3.90
2019-05-05T04:07:14.422Z,3.90
2019-05-05T04:09:49.251Z,3.90
2019-05-05T04:12:31.761Z,3.90
2019-05-05T04:15:20.476Z,3.90
2019-05-05T04:18:07.959Z,3.90
2019-05-05T04:20:44.410Z,3.90
2019-05-05T04:25:54.716Z,3.80
2019-05-05T04:28:30.800Z,3.90
2019-05-05T04:31:14.332Z,3.90
2019-05-05T04:33:49.853Z,3.80
2019-05-05T04:36:34.055Z,3.80
2019-05-05T04:39:10.850Z,3.90
2019-05-05T04:41:54.550Z,3.90
2019-05-05T04:44:30.685Z,3.80
2019-05-05T04:47:19.900Z,3.70
2019-05-05T04:50:07.342Z,3.70
2019-05-05T04:52:50.176Z,3.90
2019-05-05T04:55:27.681Z,4.10
2019-05-05T05:06:08.659Z,4.40
2019-05-05T05:08:58.399Z,4.30
2019-05-05T05:14:08.638Z,4.10
2019-05-05T05:16:44.911Z,4.10
2019-05-05T05:19:27.529Z,4.10
2019-05-05T05:22:04.908Z,4.20
2019-05-05T05:24:47.927Z,4.30
2019-05-05T05:27:24.474Z,4.40
2019-05-05T05:30:06.884Z,4.40
2019-05-05T05:32:44.564Z,4.50
2019-05-05T05:40:29.330Z,4.90
2019-05-05T05:43:14.015Z,5.00
2019-05-05T05:46:28.208Z,5.20
2019-05-05T05:49:29.562Z,5.40
2019-05-05T05:52:13.464Z,5.70
2019-05-05T05:54:49.921Z,6.10
2019-05-05T05:57:25.800Z,6.70
2019-05-05T06:00:07.922Z,7.10
2019-05-05T06:02:44.137Z,7.60
2019-05-05T06:05:26.832Z,8.00
2019-05-05T06:08:04.809Z,8.10
2019-05-05T06:10:47.446Z,8.20
2019-05-05T06:13:15.893Z,8.30
2019-05-05T06:15:53.418Z,8.10
2019-05-05T06:18:29.098Z,7.90
2019-05-05T06:21:13.605Z,7.70
2019-05-05T06:23:49.480Z,7.40
2019-05-05T06:26:17.021Z,7.00
2019-05-05T06:28:59.596Z,6.90
2019-05-05T06:31:35.666Z,6.70
2019-05-05T06:34:18.982Z,6.70
2019-05-05T06:36:55.070Z,6.70
2019-05-05T06:39:38.117Z,6.70
2019-05-05T06:42:40.000Z,6.70
2019-05-05T06:45:29.740Z,6.80
2019-05-05T06:47:58.347Z,6.90
2019-05-05T06:50:40.330Z,6.90
2019-05-05T06:53:30.207Z,7.00
2019-05-05T06:56:14.630Z,7.00
2019-05-05T06:58:49.819Z,7.00
2019-05-05T07:01:33.838Z,7.10
2019-05-05T07:04:10.786Z,7.20
2019-05-05T07:06:56.289Z,7.10
2019-05-05T07:09:33.449Z,7.20
2019-05-05T07:12:16.176Z,7.30
2019-05-05T07:14:53.835Z,7.30
2019-05-05T07:22:24.369Z,7.50
2019-05-05T07:25:06.698Z,7.50
2019-05-05T07:27:44.290Z,7.60
2019-05-05T07:30:26.742Z,7.50
2019-05-05T07:33:04.601Z,7.40
2019-05-05T07:35:59.542Z,7.50
2019-05-05T07:38:33.695Z,7.50
2019-05-05T07:43:43.850Z,7.70
2019-05-05T07:46:20.083Z,7.70
2019-05-05T07:49:03.887Z,7.80
2019-05-05T07:51:40.345Z,7.90
2019-05-05T07:54:23.633Z,8.00
2019-05-05T07:57:05.721Z,8.00
2019-05-05T07:59:42.017Z,8.00
2019-05-05T08:02:24.735Z,8.00
2019-05-05T08:05:00.934Z,7.80
2019-05-05T08:07:44.674Z,7.60
2019-05-05T08:10:20.593Z,7.60
2019-05-05T08:13:04.660Z,7.80
2019-05-05T08:15:56.006Z,7.80
2019-05-05T08:18:25.913Z,8.20
2019-05-05T08:21:30.189Z,8.50
2019-05-05T08:24:08.754Z,9.00
2019-05-05T08:27:04.739Z,9.40
2019-05-05T08:29:46.429Z,9.60
2019-05-05T08:32:33.553Z,9.90
2019-05-05T08:35:01.751Z,10.20
2019-05-05T08:37:43.713Z,10.30
2019-05-05T08:40:34.551Z,10.20
2019-05-05T08:45:46.185Z,9.70
2019-05-05T08:48:28.443Z,9.60
2019-05-05T08:50:56.078Z,9.40
2019-05-05T08:53:42.457Z,9.50
2019-05-05T08:56:14.625Z,9.60
2019-05-05T08:58:50.937Z,9.70
2019-05-05T09:01:34.314Z,10.10
2019-05-05T09:04:10.586Z,10.90
2019-05-05T09:09:24.161Z,13.50
2019-05-05T09:12:00.745Z,14.50
2019-05-05T09:14:44.921Z,14.50
2019-05-05T09:17:20.681Z,14.40
2019-05-05T09:20:06.561Z,14.20
2019-05-05T09:22:44.536Z,14.10
2019-05-05T09:25:34.034Z,13.90
2019-05-05T09:28:27.963Z,13.60
2019-05-05T09:33:44.761Z,13.30
2019-05-05T09:38:55.952Z,14.80
2019-05-05T09:41:45.372Z,15.00
2019-05-05T09:49:33.870Z,14.70
2019-05-05T09:52:10.503Z,14.10
2019-05-05T09:54:54.469Z,13.40
2019-05-05T09:57:23.698Z,12.90
2019-05-05T10:00:18.217Z,12.20
2019-05-05T10:02:45.959Z,12.00
2019-05-05T10:05:29.907Z,11.80
2019-05-05T10:07:58.597Z,11.70
2019-05-05T10:10:44.073Z,11.70
2019-05-05T10:13:33.809Z,12.10
2019-05-05T10:18:48.949Z,14.00
2019-05-05T10:21:25.195Z,14.90
2019-05-05T10:24:25.465Z,15.50
2019-05-05T10:26:49.327Z,15.10
2019-05-05T10:29:33.463Z,14.30
2019-05-05T10:32:09.914Z,14.30
2019-05-05T10:34:53.852Z,14.60
2019-05-05T10:37:24.337Z,14.50
2019-05-05T10:40:07.408Z,14.50
2019-05-05T10:43:00.125Z,14.40
2019-05-05T10:50:40.700Z,13.30
2019-05-05T10:53:17.457Z,13.10
2019-05-05T10:58:19.364Z,13.20
2019-05-05T11:01:04.232Z,13.30
2019-05-05T11:03:52.335Z,13.30
2019-05-05T11:06:44.096Z,13.30
2019-05-05T11:09:29.678Z,13.20
2019-05-05T11:12:04.052Z,13.50
2019-05-05T11:14:50.152Z,13.70
2019-05-05T11:17:27.516Z,14.10
2019-05-05T11:20:04.630Z,14.70
2019-05-05T11:22:43.851Z,15.00
2019-05-05T11:25:28.689Z,15.50
2019-05-05T11:28:20.240Z,15.40
2019-05-05T11:33:54.168Z,15.40
2019-05-05T11:36:49.642Z,15.60
2019-05-05T11:39:34.243Z,15.40
2019-05-05T11:42:10.832Z,14.60
2019-05-05T11:45:11.342Z,14.30
2019-05-05T11:47:49.854Z,14.50
2019-05-05T11:55:27.627Z,15.00
2019-05-05T11:58:04.489Z,14.80
2019-05-05T12:00:48.079Z,14.80
2019-05-05T12:03:25.094Z,14.50
2019-05-05T12:06:09.778Z,13.20
2019-05-05T12:08:45.087Z,12.20
2019-05-05T12:11:25.542Z,11.60
2019-05-05T12:14:11.534Z,11.30
2019-05-05T12:16:47.658Z,11.30
2019-05-05T12:19:15.222Z,11.20
2019-05-05T12:21:44.176Z,11.30
2019-05-05T12:24:33.757Z,11.30
2019-05-05T12:27:03.561Z,11.10
2019-05-05T12:29:51.281Z,10.80
2019-05-05T12:32:18.873Z,10.50
2019-05-05T12:35:04.290Z,10.40
2019-05-05T12:37:34.108Z,10.30
2019-05-05T12:40:01.033Z,10.40
2019-05-05T12:42:50.689Z,10.50
2019-05-05T12:45:29.701Z,10.70
2019-05-05T12:48:28.645Z,10.80
2019-05-05T12:51:14.831Z,10.80
2019-05-05T12:53:55.181Z,11.10
2019-05-05T12:59:07.216Z,11.50
2019-05-05T13:01:55.847Z,11.50
2019-05-05T13:04:38.362Z,11.60
2019-05-05T13:07:14.091Z,11.60
2019-05-05T13:09:56.277Z,11.70
2019-05-05T13:12:34.407Z,11.90
2019-05-05T13:17:45.835Z,12.50
2019-05-05T13:20:55.240Z,13.10
2019-05-05T13:23:36.033Z,13.60
2019-05-05T13:26:27.340Z,13.70
2019-05-05T13:29:04.196Z,13.40
2019-05-05T13:31:47.131Z,12.50
2019-05-05T13:34:23.631Z,12.20
2019-05-05T13:37:06.054Z,12.00
2019-05-05T13:39:47.421Z,11.70
2019-05-05T13:42:29.626Z,11.60
2019-05-05T13:45:14.519Z,11.50
2019-05-05T13:47:56.882Z,11.50
2019-05-05T13:50:37.947Z,11.60
2019-05-05T13:55:49.454Z,11.70
2019-05-05T13:58:34.164Z,11.60
2019-05-05T14:01:10.147Z,11.60
2019-05-05T14:03:56.088Z,11.40
2019-05-05T14:06:33.398Z,11.30
2019-05-05T14:09:16.405Z,11.30
2019-05-05T14:11:53.528Z,11.50
2019-05-05T14:14:37.024Z,11.40
2019-05-05T14:17:14.617Z,11.50
2019-05-05T14:20:04.626Z,11.60
2019-05-05T14:22:34.925Z,11.70
2019-05-05T14:27:45.493Z,12.00
2019-05-05T14:30:21.202Z,11.90
2019-05-05T14:38:16.165Z,11.40
2019-05-05T14:41:09.035Z,11.30
2019-05-05T14:43:45.190Z,11.40
2019-05-05T14:46:27.924Z,11.30
2019-05-05T14:49:05.682Z,11.40
2019-05-05T14:51:48.492Z,11.60
2019-05-05T14:54:25.168Z,11.90
2019-05-05T14:57:07.475Z,12.00
2019-05-05T14:59:43.668Z,12.10
2019-05-05T15:02:26.116Z,11.90
2019-05-05T15:05:21.252Z,11.90
2019-05-05T15:08:26.452Z,11.90
2019-05-05T15:11:10.794Z,11.90
2019-05-05T15:16:21.769Z,12.00
2019-05-05T15:19:05.341Z,12.10
2019-05-05T15:21:48.837Z,12.20
2019-05-05T15:24:33.599Z,12.30
2019-05-05T15:27:09.950Z,12.40
2019-05-05T15:37:20.986Z,12.50
2019-05-05T15:39:48.789Z,12.50
2019-05-05T15:42:22.791Z,12.30
2019-05-05T15:44:58.629Z,12.30
2019-05-05T15:47:43.575Z,12.20
2019-05-05T15:50:19.845Z,12.30
2019-05-05T15:55:30.311Z,12.50
2019-05-05T15:58:05.273Z,13.20
2019-05-05T16:03:15.902Z,14.70
2019-05-05T16:05:58.870Z,14.50
2019-05-05T16:08:34.361Z,14.40
2019-05-05T16:11:17.639Z,13.80
2019-05-05T16:13:54.504Z,13.30
2019-05-05T16:19:49.197Z,12.20
2019-05-05T16:22:36.781Z,11.90
2019-05-05T16:25:13.801Z,11.80
2019-05-05T16:27:58.139Z,11.50
2019-05-05T16:30:34.929Z,11.40
2019-05-05T16:33:19.187Z,11.30
2019-05-05T16:35:55.038Z,11.20
2019-05-05T16:38:39.109Z,11.30
2019-05-05T16:41:18.064Z,11.30
2019-05-05T16:48:58.467Z,11.50
2019-05-05T16:51:38.818Z,11.50
2019-05-05T16:54:19.550Z,11.50
2019-05-05T16:56:55.108Z,11.50
2019-05-05T16:59:23.775Z,11.60
2019-05-05T17:02:08.968Z,11.70
2019-05-05T17:04:57.584Z,11.70
2019-05-05T17:07:40.195Z,11.70
2019-05-05T17:10:16.097Z,11.50
2019-05-05T17:15:53.526Z,11.30
2019-05-05T17:18:57.896Z,11.30
2019-05-05T17:22:06.776Z,11.10
2019-05-05T17:24:50.694Z,11.00
2019-05-05T17:27:19.007Z,10.90
2019-05-05T17:30:04.411Z,10.90
2019-05-05T17:32:55.919Z,10.90
2019-05-05T17:35:38.773Z,10.80
2019-05-05T17:38:19.696Z,10.80
2019-05-05T17:44:14.143Z,10.60
2019-05-05T17:47:04.480Z,10.60
2019-05-05T17:49:51.243Z,10.50
2019-05-05T17:52:53.792Z,10.40
2019-05-05T17:55:33.643Z,10.40
2019-05-05T18:01:04.219Z,10.30
2019-05-05T18:03:40.261Z,10.20
2019-05-05T18:06:34.451Z,10.20
2019-05-05T18:09:23.415Z,10.10
2019-05-05T18:12:23.712Z,10.10
2019-05-05T18:15:00.643Z,10.00
2019-05-05T18:17:28.308Z,9.90
2019-05-05T18:22:29.860Z,9.90
2019-05-05T18:25:14.244Z,10.00
2019-05-05T18:27:50.170Z,10.00
2019-05-05T18:30:33.492Z,10.10
2019-05-05T18:33:09.991Z,10.00
2019-05-05T18:35:54.410Z,10.00
2019-05-05T18:38:30.855Z,10.00
2019-05-05T18:44:00.779Z,10.10
2019-05-05T18:46:29.069Z,10.10
2019-05-05T18:49:13.898Z,10.10
2019-05-05T18:51:56.895Z,10.10
2019-05-05T18:54:33.959Z,10.20
2019-05-05T18:57:17.862Z,10.20
2019-05-05T18:59:54.409Z,10.20
2019-05-05T19:02:58.639Z,10.20
2019-05-05T19:05:55.521Z,10.10
2019-05-05T19:08:51.877Z,10.10
2019-05-05T19:11:24.625Z,10.10
2019-05-05T19:14:00.454Z,10.00
2019-05-05T19:16:42.481Z,9.90
2019-05-05T19:19:18.737Z,9.80
2019-05-05T19:22:05.087Z,9.70
2019-05-05T19:24:35.315Z,9.70
2019-05-05T19:27:24.600Z,9.60
2019-05-05T19:29:53.652Z,9.50
2019-05-05T19:32:36.954Z,9.40
2019-05-05T19:35:14.045Z,9.40
2019-05-05T19:37:57.245Z,9.30
2019-05-05T19:40:25.577Z,9.30
2019-05-05T19:43:01.282Z,9.30
2019-05-05T19:45:39.001Z,9.20
2019-05-05T19:48:51.026Z,9.10
2019-05-05T19:51:36.690Z,9.10
2019-05-05T19:54:14.358Z,9.00
2019-05-05T19:56:58.229Z,9.10
2019-05-05T19:59:35.841Z,9.10
2019-05-05T20:02:19.018Z,9.10
2019-05-05T20:04:54.838Z,9.10
2019-05-05T20:07:37.632Z,9.10
2019-05-05T20:10:14.739Z,9.10
2019-05-05T20:12:59.083Z,9.00
2019-05-05T20:15:41.800Z,9.00
2019-05-05T20:18:24.888Z,9.00
2019-05-05T20:21:03.626Z,8.90
2019-05-05T20:23:21.707Z,8.90
2019-05-05T20:26:10.070Z,8.80
2019-05-05T20:28:38.850Z,8.80
2019-05-05T20:31:23.798Z,8.80
2019-05-05T20:34:21.427Z,8.80
2019-05-05T20:37:17.623Z,8.80
2019-05-05T20:39:54.536Z,8.80
2019-05-05T20:42:37.295Z,8.80
2019-05-05T20:45:15.779Z,8.70
2019-05-05T20:47:58.025Z,8.70
2019-05-05T20:50:34.435Z,8.60
2019-05-05T20:53:17.765Z,8.60
2019-05-05T20:55:54.614Z,8.60
2019-05-05T21:03:34.808Z,8.60
2019-05-05T21:06:10.602Z,8.70
2019-05-05T21:11:21.632Z,8.70
2019-05-05T21:14:04.655Z,8.70
2019-05-05T21:16:41.177Z,8.80
2019-05-05T21:19:24.780Z,8.80
2019-05-05T21:22:20.198Z,8.80
2019-05-05T21:25:04.864Z,8.90
2019-05-05T21:27:41.125Z,8.90
2019-05-05T21:30:23.871Z,8.90
2019-05-05T21:33:04.328Z,8.90
2019-05-05T21:38:15.208Z,8.80
2019-05-05T21:40:50.982Z,8.80
2019-05-05T21:43:34.252Z,8.80
2019-05-05T21:46:10.854Z,8.80
2019-05-05T21:51:21.468Z,8.60
2019-05-05T21:54:28.250Z,8.60
2019-05-05T21:57:25.526Z,8.60
2019-05-05T22:00:08.728Z,8.60
2019-05-05T22:02:51.355Z,8.50
2019-05-05T22:05:27.428Z,8.50
2019-05-05T22:07:54.958Z,8.50
2019-05-05T22:10:24.431Z,8.50
2019-05-05T22:13:06.489Z,8.40
2019-05-05T22:15:55.743Z,8.40
2019-05-05T22:18:30.736Z,8.40
2019-05-05T22:20:59.097Z,8.40
2019-05-05T22:23:43.922Z,8.40
2019-05-05T22:26:25.895Z,8.30
2019-05-05T22:29:02.056Z,8.30
2019-05-05T22:31:44.133Z,8.20
2019-05-05T22:34:20.693Z,8.20
2019-05-05T22:37:07.525Z,8.20
2019-05-05T22:39:44.373Z,8.10
2019-05-05T22:44:52.957Z,8.10
2019-05-05T22:47:29.173Z,8.10
2019-05-05T22:50:13.828Z,8.20
2019-05-05T22:52:50.347Z,8.10
2019-05-05T22:55:34.371Z,8.00
2019-05-05T22:58:04.016Z,7.90
2019-05-05T23:00:46.692Z,7.70
2019-05-05T23:06:27.985Z,7.50
2019-05-05T23:09:04.795Z,7.40
2019-05-05T23:16:50.089Z,7.30
2019-05-05T23:19:35.805Z,7.20
2019-05-05T23:22:19.975Z,7.10
2019-05-05T23:27:54.753Z,7.10
2019-05-05T23:30:41.168Z,7.00
2019-05-05T23:33:28.278Z,7.00
2019-05-05T23:36:10.619Z,7.10
2019-05-05T23:38:47.105Z,7.10
2019-05-05T23:41:29.414Z,7.10
2019-05-05T23:44:05.461Z,7.20
2019-05-05T23:51:45.045Z,7.10
2019-05-05T23:54:28.627Z,7.10
2019-05-05T23:57:11.163Z,7.00
2019-05-05T23:59:47.034Z,6.90
